Time,TemperatureF,DewpointF,PressureIn,WindDirection,WindDirectionDegrees,WindSpeedMPH,WindSpeedGustMPH,Humidity,HourlyPrecipIn,Conditions,Clouds,dailyrainin,SoftwareType,DateUTC
2013-08-29 00:00:00,63.0,41.1,30.13,NE,45,0.0,0.0,45,0.00,,,0.00,WUHU21623XXSP,2013-08-29 07:00:00,
2013-08-29 00:05:00,63.0,41.1,30.13,NE,45,0.0,0.0,46,0.00,,,0.00,WUHU21623XXSP,2013-08-29 07:05:00,
2013-08-29 00:10:00,62.8,41.6,30.13,South,180,0.0,0.0,46,0.00,,,0.00,WUHU21623XXSP,2013-08-29 07:10:00,
2013-08-29 00:15:00,62.4,41.2,30.13,South,180,0.0,0.0,46,0.00,,,0.00,WUHU21623XXSP,2013-08-29 07:15:00,
2013-08-29 00:21:00,62.2,41.1,30.13,South,180,0.0,0.0,46,0.00,,,0.00,WUHU21623XXSP,2013-08-29 07:21:00,
2013-08-29 00:28:00,61.9,40.7,30.13,NE,45,0.0,0.0,46,0.00,,,0.00,WUHU21623XXSP,2013-08-29 07:28:00,
2013-08-29 00:36:00,61.5,40.4,30.13,NE,45,0.0,0.0,46,0.00,,,0.00,WUHU21623XXSP,2013-08-29 07:36:00,
2013-08-29 00:43:00,61.2,40.7,30.13,SE,135,0.0,0.0,47,0.00,,,0.00,WUHU21623XXSP,2013-08-29 07:43:00,
2013-08-29 00:48:00,61.0,40.5,30.13,SE,135,0.0,0.0,47,0.00,,,0.00,WUHU21623XXSP,2013-08-29 07:48:00,
2013-08-29 00:53:00,60.4,40.0,30.13,ESE,112,0.0,0.0,47,0.00,,,0.00,WUHU21623XXSP,2013-08-29 07:53:00,
2013-08-29 00:58:00,60.4,40.0,30.13,ESE,112,0.0,0.0,47,0.00,,,0.00,WUHU21623XXSP,2013-08-29 07:58:00,
2013-08-29 01:03:00,60.1,39.7,30.13,ESE,112,0.0,0.0,47,0.00,,,0.00,WUHU21623XXSP,2013-08-29 08:03:00,
2013-08-29 01:08:00,59.7,39.4,30.13,ESE,112,0.0,0.0,47,0.00,,,0.00,WUHU21623XXSP,2013-08-29 08:08:00,
2013-08-29 01:13:00,59.5,39.8,30.13,ESE,112,0.0,0.0,48,0.00,,,0.00,WUHU21623XXSP,2013-08-29 08:13:00,
2013-08-29 01:19:00,59.0,39.3,30.13,SE,135,0.0,0.0,48,0.00,,,0.00,WUHU21623XXSP,2013-08-29 08:19:00,
2013-08-29 01:25:00,58.8,39.1,30.13,SE,135,0.0,0.0,48,0.00,,,0.00,WUHU21623XXSP,2013-08-29 08:25:00,
2013-08-29 01:32:00,58.3,38.7,30.13,ESE,112,0.0,0.0,48,0.00,,,0.00,WUHU21623XXSP,2013-08-29 08:32:00,
2013-08-29 01:40:00,57.9,38.9,30.13,SE,135,0.0,0.0,49,0.00,,,0.00,WUHU21623XXSP,2013-08-29 08:40:00,
2013-08-29 01:49:00,57.6,38.6,30.13,SSE,157,0.0,0.0,49,0.00,,,0.00,WUHU21623XXSP,2013-08-29 08:49:00,
2013-08-29 01:56:00,57.4,38.4,30.13,SSE,157,0.0,0.0,49,0.00,,,0.00,WUHU21623XXSP,2013-08-29 08:56:00,
2013-08-29 02:01:00,57.0,38.7,30.13,SSE,157,0.0,0.0,50,0.00,,,0.00,WUHU21623XXSP,2013-08-29 09:01:00,
2013-08-29 02:08:00,57.0,38.7,30.13,ENE,67,0.0,0.0,50,0.00,,,0.00,WUHU21623XXSP,2013-08-29 09:08:00,
2013-08-29 02:19:00,56.5,38.1,30.13,SE,135,0.0,0.0,50,0.00,,,0.00,WUHU21623XXSP,2013-08-29 09:19:00,
2013-08-29 02:28:00,56.1,37.9,30.14,WNW,292,0.0,0.0,50,0.00,,,0.00,WUHU21623XXSP,2013-08-29 09:28:00,
2013-08-29 02:33:00,56.1,38.2,30.14,East,90,0.0,0.0,51,0.00,,,0.00,WUHU21623XXSP,2013-08-29 09:33:00,
2013-08-29 02:38:00,55.9,38.0,30.14,SSW,202,0.0,0.0,51,0.00,,,0.00,WUHU21623XXSP,2013-08-29 09:38:00,
2013-08-29 02:45:00,55.8,37.9,30.14,SSE,157,0.0,0.0,51,0.00,,,0.00,WUHU21623XXSP,2013-08-29 09:45:00,
2013-08-29 02:56:00,55.4,37.5,30.14,SE,135,0.0,0.0,51,0.00,,,0.00,WUHU21623XXSP,2013-08-29 09:56:00,
2013-08-29 03:01:00,55.2,37.3,30.14,SE,135,0.0,0.0,51,0.00,,,0.00,WUHU21623XXSP,2013-08-29 10:01:00,
2013-08-29 03:07:00,55.0,37.7,30.14,WNW,292,0.0,0.0,52,0.00,,,0.00,WUHU21623XXSP,2013-08-29 10:07:00,
2013-08-29 03:13:00,54.7,37.3,30.13,NNE,22,0.0,0.0,52,0.00,,,0.00,WUHU21623XXSP,2013-08-29 10:13:00,
2013-08-29 03:22:00,54.3,37.0,30.14,NNE,22,0.0,0.0,52,0.00,,,0.00,WUHU21623XXSP,2013-08-29 10:22:00,
2013-08-29 03:36:00,54.1,37.3,30.14,WNW,292,0.0,0.0,53,0.00,,,0.00,WUHU21623XXSP,2013-08-29 10:36:00,
2013-08-29 03:42:00,54.0,37.1,30.14,NNE,22,0.0,0.0,53,0.00,,,0.00,WUHU21623XXSP,2013-08-29 10:42:00,
2013-08-29 03:49:00,54.0,37.1,30.14,North,0,0.0,0.0,53,0.00,,,0.00,WUHU21623XXSP,2013-08-29 10:49:00,
2013-08-29 03:56:00,53.8,37.0,30.14,North,0,0.0,0.0,53,0.00,,,0.00,WUHU21623XXSP,2013-08-29 10:56:00,
2013-08-29 04:02:00,53.8,37.0,30.14,North,0,0.0,0.0,53,0.00,,,0.00,WUHU21623XXSP,2013-08-29 11:02:00,
2013-08-29 04:07:00,53.4,37.1,30.14,South,180,0.0,0.0,54,0.00,,,0.00,WUHU21623XXSP,2013-08-29 11:07:00,
2013-08-29 04:15:00,53.2,37.0,30.14,SSE,157,0.0,0.0,54,0.00,,,0.00,WUHU21623XXSP,2013-08-29 11:15:00,
2013-08-29 04:20:00,52.9,36.8,30.14,SSE,157,0.0,0.0,54,0.00,,,0.00,WUHU21623XXSP,2013-08-29 11:20:00,
2013-08-29 04:25:00,52.9,37.1,30.14,NE,45,0.0,0.0,55,0.00,,,0.00,WUHU21623XXSP,2013-08-29 11:25:00,
2013-08-29 04:30:00,52.7,36.9,30.14,NE,45,0.0,0.0,55,0.00,,,0.00,WUHU21623XXSP,2013-08-29 11:30:00,
2013-08-29 04:38:00,52.5,36.7,30.15,SW,225,0.0,0.0,55,0.00,,,0.00,WUHU21623XXSP,2013-08-29 11:38:00,
2013-08-29 04:47:00,52.5,37.2,30.14,SSE,157,0.0,0.0,56,0.00,,,0.00,WUHU21623XXSP,2013-08-29 11:47:00,
2013-08-29 04:52:00,52.3,36.7,30.15,SSE,157,0.0,0.0,56,0.00,,,0.00,WUHU21623XXSP,2013-08-29 11:52:00,
2013-08-29 04:57:00,52.3,37.0,30.14,SE,135,0.0,0.0,56,0.00,,,0.00,WUHU21623XXSP,2013-08-29 11:57:00,
2013-08-29 05:02:00,52.2,36.7,30.15,ESE,112,0.0,0.0,56,0.00,,,0.00,WUHU21623XXSP,2013-08-29 12:02:00,
2013-08-29 05:07:00,52.2,37.3,30.15,East,90,0.0,0.0,57,0.00,,,0.00,WUHU21623XXSP,2013-08-29 12:07:00,
2013-08-29 05:15:00,52.7,37.8,30.15,SSW,202,0.9,0.9,57,0.00,,,0.00,WUHU21623XXSP,2013-08-29 12:15:00,
2013-08-29 05:20:00,52.9,38.0,30.15,SSE,157,0.0,0.9,57,0.00,,,0.00,WUHU21623XXSP,2013-08-29 12:20:00,
2013-08-29 05:25:00,52.9,38.0,30.15,South,180,0.0,0.0,57,0.00,,,0.00,WUHU21623XXSP,2013-08-29 12:25:00,
2013-08-29 05:30:00,52.9,38.0,30.15,South,180,0.0,0.0,57,0.00,,,0.00,WUHU21623XXSP,2013-08-29 12:30:00,
2013-08-29 05:36:00,52.9,38.0,30.15,South,180,0.0,0.0,57,0.00,,,0.00,WUHU21623XXSP,2013-08-29 12:36:00,
2013-08-29 05:41:00,52.7,37.8,30.15,SSW,202,0.0,0.0,57,0.00,,,0.00,WUHU21623XXSP,2013-08-29 12:41:00,
2013-08-29 05:51:00,52.3,37.0,30.15,SSE,157,0.0,0.0,56,0.00,,,0.00,WUHU21623XXSP,2013-08-29 12:51:00,
2013-08-29 05:56:00,52.0,36.7,30.15,SE,135,0.0,0.0,56,0.00,,,0.00,WUHU21623XXSP,2013-08-29 12:56:00,
2013-08-29 06:01:00,51.8,36.5,30.16,ENE,67,0.0,0.0,56,0.00,,,0.00,WUHU21623XXSP,2013-08-29 13:01:00,
2013-08-29 06:07:00,51.6,36.8,30.16,East,90,0.0,0.0,57,0.00,,,0.00,WUHU21623XXSP,2013-08-29 13:07:00,
2013-08-29 06:11:00,51.6,36.8,30.16,ENE,67,0.0,0.0,57,0.00,,,0.00,WUHU21623XXSP,2013-08-29 13:11:00,
2013-08-29 06:17:00,51.6,37.2,30.16,East,90,0.0,0.0,58,0.00,,,0.00,WUHU21623XXSP,2013-08-29 13:17:00,
2013-08-29 06:22:00,51.8,37.4,30.17,ESE,112,0.0,0.0,58,0.00,,,0.00,WUHU21623XXSP,2013-08-29 13:22:00,
2013-08-29 06:27:00,52.2,38.2,30.17,ESE,112,0.0,0.0,59,0.00,,,0.00,WUHU21623XXSP,2013-08-29 13:27:00,
2013-08-29 06:36:00,52.3,37.9,30.17,ESE,112,0.0,0.0,58,0.00,,,0.00,WUHU21623XXSP,2013-08-29 13:36:00,
2013-08-29 06:51:00,52.5,38.6,30.17,ESE,112,0.0,0.0,59,0.00,,,0.00,WUHU21623XXSP,2013-08-29 13:51:00,
2013-08-29 06:56:00,52.5,38.6,30.17,ESE,112,0.0,0.0,59,0.00,,,0.00,WUHU21623XXSP,2013-08-29 13:56:00,
2013-08-29 07:01:00,52.5,38.6,30.17,SE,135,0.0,0.0,59,0.00,,,0.00,WUHU21623XXSP,2013-08-29 14:01:00,
2013-08-29 07:06:00,52.5,38.6,30.18,SE,135,0.0,0.0,59,0.00,,,0.00,WUHU21623XXSP,2013-08-29 14:06:00,
2013-08-29 07:11:00,52.5,38.6,30.18,ESE,112,0.0,0.0,59,0.00,,,0.00,WUHU21623XXSP,2013-08-29 14:11:00,
2013-08-29 07:16:00,52.5,38.6,30.18,ESE,112,0.0,0.0,59,0.00,,,0.00,WUHU21623XXSP,2013-08-29 14:16:00,
2013-08-29 07:23:00,52.7,39.2,30.18,East,90,0.0,0.0,60,0.00,,,0.00,WUHU21623XXSP,2013-08-29 14:23:00,
2013-08-29 07:36:00,53.4,39.9,30.18,East,90,0.0,0.0,60,0.00,,,0.00,WUHU21623XXSP,2013-08-29 14:36:00,
2013-08-29 07:49:00,54.3,41.1,30.19,East,90,0.0,0.0,61,0.00,,,0.00,WUHU21623XXSP,2013-08-29 14:49:00,
2013-08-29 07:55:00,54.9,41.6,30.19,East,90,0.0,0.0,61,0.00,,,0.00,WUHU21623XXSP,2013-08-29 14:55:00,
2013-08-29 08:00:00,55.2,42.0,30.19,East,90,0.0,0.0,61,0.00,,,0.00,WUHU21623XXSP,2013-08-29 15:00:00,
2013-08-29 08:06:00,55.8,42.9,30.19,ENE,67,0.0,0.0,62,0.00,,,0.00,WUHU21623XXSP,2013-08-29 15:06:00,
2013-08-29 08:12:00,56.3,43.4,30.19,ENE,67,0.0,0.0,62,0.00,,,0.00,WUHU21623XXSP,2013-08-29 15:12:00,
2013-08-29 08:19:00,56.8,44.0,30.19,ENE,67,0.0,0.0,62,0.00,,,0.00,WUHU21623XXSP,2013-08-29 15:19:00,
2013-08-29 08:24:00,57.0,44.1,30.19,ENE,67,0.0,0.0,63,0.00,,,0.00,WUHU21623XXSP,2013-08-29 15:24:00,
2013-08-29 08:30:00,57.9,45.4,30.19,South,180,0.0,0.0,63,0.00,,,0.00,WUHU21623XXSP,2013-08-29 15:30:00,
2013-08-29 08:36:00,58.5,45.5,30.19,SE,135,0.0,0.0,62,0.00,,,0.00,WUHU21623XXSP,2013-08-29 15:36:00,
2013-08-29 08:51:00,60.3,46.8,30.19,SE,135,0.0,0.0,61,0.00,,,0.00,WUHU21623XXSP,2013-08-29 15:51:00,
2013-08-29 08:56:00,60.8,47.4,30.19,ESE,112,0.0,0.0,61,0.00,,,0.00,WUHU21623XXSP,2013-08-29 15:56:00,
2013-08-29 09:04:00,62.2,47.4,30.19,SSE,157,0.0,0.0,59,0.00,,,0.00,WUHU21623XXSP,2013-08-29 16:04:00,
2013-08-29 09:10:00,62.8,47.8,30.19,SSE,157,0.0,0.0,58,0.00,,,0.00,WUHU21623XXSP,2013-08-29 16:10:00,
2013-08-29 09:17:00,63.5,47.9,30.19,SE,135,0.0,0.0,57,0.00,,,0.00,WUHU21623XXSP,2013-08-29 16:17:00,
2013-08-29 09:22:00,64.0,48.1,30.19,SSE,157,0.0,0.0,57,0.00,,,0.00,WUHU21623XXSP,2013-08-29 16:22:00,
2013-08-29 09:27:00,64.6,48.9,30.19,ESE,112,0.0,0.0,57,0.00,,,0.00,WUHU21623XXSP,2013-08-29 16:27:00,
2013-08-29 09:32:00,64.9,48.8,30.19,SSE,157,0.0,0.0,56,0.00,,,0.00,WUHU21623XXSP,2013-08-29 16:32:00,
2013-08-29 09:37:00,65.7,49.0,30.19,SE,135,0.0,0.0,55,0.00,,,0.00,WUHU21623XXSP,2013-08-29 16:37:00,
2013-08-29 09:42:00,66.4,49.2,30.19,SSW,202,0.0,0.0,54,0.00,,,0.00,WUHU21623XXSP,2013-08-29 16:42:00,
2013-08-29 09:49:00,66.9,49.2,30.19,South,180,0.0,0.0,53,0.00,,,0.00,WUHU21623XXSP,2013-08-29 16:49:00,
2013-08-29 09:54:00,67.5,49.5,30.19,WNW,292,0.0,0.0,53,0.00,,,0.00,WUHU21623XXSP,2013-08-29 16:54:00,
2013-08-29 09:59:00,67.6,49.4,30.19,WNW,292,0.0,0.0,52,0.00,,,0.00,WUHU21623XXSP,2013-08-29 16:59:00,
2013-08-29 10:04:00,67.8,49.1,30.19,ENE,67,0.0,0.0,51,0.00,,,0.00,WUHU21623XXSP,2013-08-29 17:04:00,
2013-08-29 10:19:00,69.4,49.4,30.19,SE,135,0.0,0.0,49,0.00,,,0.00,WUHU21623XXSP,2013-08-29 17:19:00,
2013-08-29 10:24:00,69.6,49.6,30.19,WNW,292,0.0,0.0,49,0.00,,,0.00,WUHU21623XXSP,2013-08-29 17:24:00,
2013-08-29 10:32:00,70.7,49.4,30.18,SSE,157,3.1,3.1,47,0.00,,,0.00,WUHU21623XXSP,2013-08-29 17:32:00,
2013-08-29 10:38:00,71.8,49.8,30.18,SSW,202,2.7,3.1,46,0.00,,,0.00,WUHU21623XXSP,2013-08-29 17:38:00,
2013-08-29 10:53:00,73.6,49.6,30.18,East,90,2.2,2.2,43,0.00,,,0.00,WUHU21623XXSP,2013-08-29 17:53:00,
2013-08-29 10:59:00,74.1,49.5,30.19,South,180,2.5,2.5,42,0.00,,,0.00,WUHU21623XXSP,2013-08-29 17:59:00,
2013-08-29 11:06:00,74.8,49.5,30.19,SSW,202,8.5,8.5,41,0.00,,,0.00,WUHU21623XXSP,2013-08-29 18:06:00,
2013-08-29 11:14:00,75.7,49.0,30.19,East,90,2.9,8.5,39,0.00,,,0.00,WUHU21623XXSP,2013-08-29 18:14:00,
2013-08-29 11:27:00,76.8,48.5,30.18,SW,225,0.0,0.0,37,0.00,,,0.00,WUHU21623XXSP,2013-08-29 18:27:00,
2013-08-29 11:32:00,77.0,48.6,30.18,ESE,112,1.1,1.1,37,0.00,,,0.00,WUHU21623XXSP,2013-08-29 18:32:00,
2013-08-29 11:38:00,77.5,48.3,30.18,SSW,202,2.7,2.7,36,0.00,,,0.00,WUHU21623XXSP,2013-08-29 18:38:00,
2013-08-29 11:44:00,78.3,48.2,30.18,SSE,157,4.5,4.5,35,0.00,,,0.00,WUHU21623XXSP,2013-08-29 18:44:00,
2013-08-29 11:49:00,78.6,48.5,30.18,SSE,157,2.9,4.5,35,0.00,,,0.00,WUHU21623XXSP,2013-08-29 18:49:00,
2013-08-29 11:57:00,79.2,48.2,30.18,SSW,202,1.1,2.9,34,0.00,,,0.00,WUHU21623XXSP,2013-08-29 18:57:00,
2013-08-29 12:06:00,79.9,48.8,30.18,WSW,247,0.0,1.1,34,0.00,,,0.00,WUHU21623XXSP,2013-08-29 19:06:00,
2013-08-29 12:21:00,80.8,48.1,30.17,South,180,8.1,8.1,32,0.00,,,0.00,WUHU21623XXSP,2013-08-29 19:21:00,
2013-08-29 12:26:00,81.1,47.6,30.18,ESE,112,1.6,1.6,31,0.00,,,0.00,WUHU21623XXSP,2013-08-29 19:26:00,
2013-08-29 12:31:00,81.3,47.0,30.18,SSE,157,0.0,1.6,30,0.00,,,0.00,WUHU21623XXSP,2013-08-29 19:31:00,
2013-08-29 12:38:00,81.9,47.4,30.18,SSE,157,0.9,0.9,30,0.00,,,0.00,WUHU21623XXSP,2013-08-29 19:38:00,
2013-08-29 12:43:00,82.0,47.6,30.17,SE,135,0.9,0.9,30,0.00,,,0.00,WUHU21623XXSP,2013-08-29 19:43:00,
2013-08-29 12:51:00,82.6,46.9,30.18,East,90,0.0,0.9,29,0.00,,,0.00,WUHU21623XXSP,2013-08-29 19:51:00,
2013-08-29 12:56:00,82.6,46.9,30.17,South,180,4.3,4.3,29,0.00,,,0.00,WUHU21623XXSP,2013-08-29 19:56:00,
2013-08-29 13:01:00,82.8,47.1,30.17,East,90,0.0,4.3,29,0.00,,,0.00,WUHU21623XXSP,2013-08-29 20:01:00,
2013-08-29 13:08:00,83.1,46.4,30.17,ESE,112,0.0,0.0,28,0.00,,,0.00,WUHU21623XXSP,2013-08-29 20:08:00,
2013-08-29 13:14:00,83.5,46.7,30.17,SSE,157,2.5,2.5,28,0.00,,,0.00,WUHU21623XXSP,2013-08-29 20:14:00,
2013-08-29 13:27:00,83.8,47.0,30.17,ESE,112,0.0,0.0,28,0.00,,,0.00,WUHU21623XXSP,2013-08-29 20:27:00,
2013-08-29 13:35:00,84.0,46.1,30.17,SE,135,3.6,3.6,27,0.00,,,0.00,WUHU21623XXSP,2013-08-29 20:35:00,
2013-08-29 13:44:00,84.2,46.3,30.17,SSE,157,3.8,3.8,27,0.00,,,0.00,WUHU21623XXSP,2013-08-29 20:44:00,
2013-08-29 13:50:00,84.6,46.6,30.17,SSE,157,0.0,3.8,27,0.00,,,0.00,WUHU21623XXSP,2013-08-29 20:50:00,
2013-08-29 13:55:00,84.6,46.6,30.17,SSW,202,0.0,0.0,26,0.00,,,0.00,WUHU21623XXSP,2013-08-29 20:55:00,
2013-08-29 14:05:00,84.7,45.7,30.17,SW,225,5.6,5.6,26,0.00,,,0.00,WUHU21623XXSP,2013-08-29 21:05:00,
2013-08-29 14:14:00,84.9,45.8,30.16,South,180,0.0,5.6,26,0.00,,,0.00,WUHU21623XXSP,2013-08-29 21:14:00,
2013-08-29 14:20:00,84.9,44.8,30.17,ESE,112,0.0,0.0,25,0.00,,,0.00,WUHU21623XXSP,2013-08-29 21:20:00,
2013-08-29 14:25:00,84.9,44.8,30.17,South,180,3.1,3.1,25,0.00,,,0.00,WUHU21623XXSP,2013-08-29 21:25:00,
2013-08-29 14:30:00,84.9,44.8,30.16,South,180,2.5,3.1,25,0.00,,,0.00,WUHU21623XXSP,2013-08-29 21:30:00,
2013-08-29 14:35:00,84.7,44.6,30.16,SSE,157,4.7,4.7,25,0.00,,,0.00,WUHU21623XXSP,2013-08-29 21:35:00,
2013-08-29 14:42:00,84.7,44.6,30.16,South,180,0.9,4.7,25,0.00,,,0.00,WUHU21623XXSP,2013-08-29 21:42:00,
2013-08-29 14:48:00,84.9,44.8,30.16,South,180,0.0,0.9,25,0.00,,,0.00,WUHU21623XXSP,2013-08-29 21:48:00,
2013-08-29 14:57:00,84.9,42.6,30.16,SSW,202,10.5,10.5,23,0.00,,,0.00,WUHU21623XXSP,2013-08-29 21:57:00,
2013-08-29 15:02:00,84.9,42.6,30.16,SSE,157,2.5,10.5,23,0.00,,,0.00,WUHU21623XXSP,2013-08-29 22:02:00,
2013-08-29 15:07:00,84.9,42.6,30.15,ESE,112,5.4,5.4,23,0.00,,,0.00,WUHU21623XXSP,2013-08-29 22:07:00,
2013-08-29 15:18:00,84.9,41.5,30.15,South,180,0.0,0.0,22,0.00,,,0.00,WUHU21623XXSP,2013-08-29 22:18:00,
2013-08-29 15:27:00,85.1,42.8,30.15,SSW,202,8.9,8.9,23,0.00,,,0.00,WUHU21623XXSP,2013-08-29 22:27:00,
2013-08-29 15:35:00,85.3,42.9,30.15,SE,135,6.9,8.9,23,0.00,,,0.00,WUHU21623XXSP,2013-08-29 22:35:00,
2013-08-29 15:40:00,85.3,42.9,30.15,SW,225,4.5,6.9,23,0.00,,,0.00,WUHU21623XXSP,2013-08-29 22:40:00,
2013-08-29 15:46:00,85.3,45.1,30.16,West,270,0.9,4.5,25,0.00,,,0.00,WUHU21623XXSP,2013-08-29 22:46:00,
2013-08-29 15:55:00,85.3,45.1,30.16,SSW,202,5.4,5.4,25,0.00,,,0.00,WUHU21623XXSP,2013-08-29 22:55:00,
2013-08-29 16:05:00,85.1,44.9,30.16,SSE,157,8.9,8.9,25,0.00,,,0.00,WUHU21623XXSP,2013-08-29 23:05:00,
2013-08-29 16:12:00,84.9,44.8,30.16,East,90,2.5,8.9,25,0.00,,,0.00,WUHU21623XXSP,2013-08-29 23:12:00,
2013-08-29 16:18:00,84.7,44.6,30.16,ESE,112,2.2,2.5,25,0.00,,,0.00,WUHU21623XXSP,2013-08-29 23:18:00,
2013-08-29 16:23:00,84.6,44.5,30.16,South,180,7.6,7.6,25,0.00,,,0.00,WUHU21623XXSP,2013-08-29 23:23:00,
2013-08-29 16:28:00,84.4,44.3,30.16,SSE,157,0.7,7.6,25,0.00,,,0.00,WUHU21623XXSP,2013-08-29 23:28:00,
2013-08-29 16:35:00,84.2,44.1,30.16,North,0,0.0,0.7,25,0.00,,,0.00,WUHU21623XXSP,2013-08-29 23:35:00,
2013-08-29 16:42:00,84.0,44.0,30.16,South,180,4.7,4.7,25,0.00,,,0.00,WUHU21623XXSP,2013-08-29 23:42:00,
2013-08-29 16:47:00,84.0,44.0,30.16,South,180,4.7,4.7,25,0.00,,,0.00,WUHU21623XXSP,2013-08-29 23:47:00,
2013-08-29 16:55:00,83.8,43.8,30.16,SE,135,0.0,12.8,25,0.00,,,0.00,WUHU21623XXSP,2013-08-29 23:55:00,
2013-08-29 17:01:00,83.5,43.5,30.16,SW,225,2.5,2.5,25,0.00,,,0.00,WUHU21623XXSP,2013-08-30 00:01:00,
2013-08-29 17:06:00,83.3,43.4,30.16,South,180,9.2,9.2,25,0.00,,,0.00,WUHU21623XXSP,2013-08-30 00:06:00,
2013-08-29 17:14:00,83.1,43.2,30.16,SSW,202,2.7,9.2,25,0.00,,,0.00,WUHU21623XXSP,2013-08-30 00:14:00,
2013-08-29 17:22:00,82.8,42.9,30.16,South,180,1.1,2.7,25,0.00,,,0.00,WUHU21623XXSP,2013-08-30 00:22:00,
2013-08-29 17:31:00,82.6,43.8,30.16,North,0,0.0,1.1,26,0.00,,,0.00,WUHU21623XXSP,2013-08-30 00:31:00,
2013-08-29 17:40:00,82.2,42.5,30.16,SSW,202,4.9,4.9,25,0.00,,,0.00,WUHU21623XXSP,2013-08-30 00:40:00,
2013-08-29 17:46:00,82.0,41.3,30.17,South,180,0.0,4.9,24,0.00,,,0.00,WUHU21623XXSP,2013-08-30 00:46:00,
2013-08-29 17:52:00,81.7,42.0,30.16,East,90,0.0,0.0,25,0.00,,,0.00,WUHU21623XXSP,2013-08-30 00:52:00,
2013-08-29 18:05:00,81.5,42.9,30.16,South,180,1.3,1.3,26,0.00,,,0.00,WUHU21623XXSP,2013-08-30 01:05:00,
2013-08-29 18:20:00,81.0,42.5,30.17,SW,225,4.5,4.5,26,0.00,,,0.00,WUHU21623XXSP,2013-08-30 01:20:00,
2013-08-29 18:25:00,80.6,42.2,30.16,South,180,2.9,4.5,26,0.00,,,0.00,WUHU21623XXSP,2013-08-30 01:25:00,
2013-08-29 18:37:00,80.1,42.8,30.16,NE,45,0.0,0.0,27,0.00,,,0.00,WUHU21623XXSP,2013-08-30 01:37:00,
2013-08-29 18:44:00,79.7,42.5,30.16,South,180,0.0,0.0,27,0.00,,,0.00,WUHU21623XXSP,2013-08-30 01:44:00,
2013-08-29 18:50:00,79.5,42.3,30.17,SSE,157,0.0,0.0,27,0.00,,,0.00,WUHU21623XXSP,2013-08-30 01:50:00,
2013-08-29 19:03:00,79.0,42.9,30.17,SSE,157,0.0,0.0,28,0.00,,,0.00,WUHU21623XXSP,2013-08-30 02:03:00,
2013-08-29 19:11:00,78.6,42.5,30.17,SSE,157,0.0,0.0,28,0.00,,,0.00,WUHU21623XXSP,2013-08-30 02:11:00,
2013-08-29 19:20:00,78.1,42.1,30.17,South,180,0.0,0.0,28,0.00,,,0.00,WUHU21623XXSP,2013-08-30 02:20:00,
2013-08-29 19:31:00,77.5,41.7,30.17,SSE,157,0.0,0.0,28,0.00,,,0.00,WUHU21623XXSP,2013-08-30 02:31:00,
2013-08-29 19:37:00,77.0,42.3,30.17,SE,135,0.0,0.0,29,0.00,,,0.00,WUHU21623XXSP,2013-08-30 02:37:00,
2013-08-29 19:43:00,76.8,42.1,30.18,SE,135,0.0,0.0,29,0.00,,,0.00,WUHU21623XXSP,2013-08-30 02:43:00,
2013-08-29 19:50:00,76.3,41.6,30.17,SE,135,0.0,0.0,29,0.00,,,0.00,WUHU21623XXSP,2013-08-30 02:50:00,
2013-08-29 19:56:00,75.9,41.3,30.18,SE,135,0.0,0.0,29,0.00,,,0.00,WUHU21623XXSP,2013-08-30 02:56:00,
2013-08-29 20:01:00,75.6,41.2,30.18,SE,135,1.1,1.1,29,0.00,,,0.00,WUHU21623XXSP,2013-08-30 03:01:00,
2013-08-29 20:07:00,75.0,41.6,30.18,SSE,157,2.2,2.2,30,0.00,,,0.00,WUHU21623XXSP,2013-08-30 03:07:00,
2013-08-29 20:13:00,74.8,41.4,30.18,SSW,202,3.1,3.1,30,0.00,,,0.00,WUHU21623XXSP,2013-08-30 03:13:00,
2013-08-29 20:18:00,74.8,41.4,30.18,South,180,1.1,3.1,30,0.00,,,0.00,WUHU21623XXSP,2013-08-30 03:18:00,
2013-08-29 20:23:00,74.5,41.1,30.18,SSW,202,6.3,6.3,30,0.00,,,0.00,WUHU21623XXSP,2013-08-30 03:23:00,
2013-08-29 20:28:00,74.1,40.9,30.18,SSW,202,4.0,6.3,30,0.00,,,0.00,WUHU21623XXSP,2013-08-30 03:28:00,
2013-08-29 20:35:00,74.1,40.7,30.18,SE,135,0.0,4.0,30,0.00,,,0.00,WUHU21623XXSP,2013-08-30 03:35:00,
2013-08-29 20:45:00,73.8,40.4,30.19,SE,135,0.0,0.0,30,0.00,,,0.00,WUHU21623XXSP,2013-08-30 03:45:00,
2013-08-29 20:52:00,73.2,40.0,30.19,SSE,157,0.0,0.0,30,0.00,,,0.00,WUHU21623XXSP,2013-08-30 03:52:00,
2013-08-29 20:57:00,73.0,40.5,30.19,South,180,0.0,0.0,31,0.00,,,0.00,WUHU21623XXSP,2013-08-30 03:57:00,
2013-08-29 21:03:00,72.3,40.0,30.19,SSE,157,0.0,0.0,31,0.00,,,0.00,WUHU21623XXSP,2013-08-30 04:03:00,
2013-08-29 21:04:00,72.3,40.0,30.19,SSE,157,0.0,0.0,31,0.00,,,0.00,WUHU21623XXSP,2013-08-30 04:04:00,
2013-08-29 21:14:00,71.4,39.2,30.20,East,90,0.0,0.0,31,0.00,,,0.00,WUHU21623XXSP,2013-08-30 04:14:00,
2013-08-29 21:20:00,70.9,38.8,30.20,ENE,67,0.0,0.0,31,0.00,,,0.00,WUHU21623XXSP,2013-08-30 04:20:00,
2013-08-29 21:26:00,70.5,38.4,30.20,ESE,112,0.0,0.0,31,0.00,,,0.00,WUHU21623XXSP,2013-08-30 04:26:00,
2013-08-29 21:33:00,70.0,37.9,30.20,East,90,0.0,0.0,31,0.00,,,0.00,WUHU21623XXSP,2013-08-30 04:33:00,
2013-08-29 21:37:00,69.6,37.6,30.19,East,90,0.0,0.0,31,0.00,,,0.00,WUHU21623XXSP,2013-08-30 04:37:00,
2013-08-29 21:43:00,69.1,37.9,30.20,ESE,112,0.0,0.0,32,0.00,,,0.00,WUHU21623XXSP,2013-08-30 04:43:00,
2013-08-29 21:48:00,68.7,37.7,30.20,ESE,112,0.0,0.0,32,0.00,,,0.00,WUHU21623XXSP,2013-08-30 04:48:00,
2013-08-29 21:53:00,68.5,37.4,30.20,ENE,67,0.0,0.0,32,0.00,,,0.00,WUHU21623XXSP,2013-08-30 04:53:00,
2013-08-29 22:00:00,68.2,37.1,30.20,ENE,67,0.0,0.0,32,0.00,,,0.00,WUHU21623XXSP,2013-08-30 05:00:00,
2013-08-29 22:07:00,67.8,37.5,30.20,East,90,0.0,0.0,33,0.00,,,0.00,WUHU21623XXSP,2013-08-30 05:07:00,
2013-08-29 22:12:00,67.8,37.5,30.20,East,90,0.0,0.0,33,0.00,,,0.00,WUHU21623XXSP,2013-08-30 05:12:00,
2013-08-29 22:17:00,67.8,37.5,30.21,East,90,0.0,0.0,33,0.00,,,0.00,WUHU21623XXSP,2013-08-30 05:17:00,
2013-08-29 22:22:00,67.8,37.5,30.21,East,90,0.0,0.0,33,0.00,,,0.00,WUHU21623XXSP,2013-08-30 05:22:00,
2013-08-29 22:28:00,67.6,37.3,30.20,East,90,0.0,0.0,33,0.00,,,0.00,WUHU21623XXSP,2013-08-30 05:28:00,
2013-08-29 22:33:00,67.5,37.9,30.20,East,90,0.0,0.0,34,0.00,,,0.00,WUHU21623XXSP,2013-08-30 05:33:00,
2013-08-29 22:39:00,66.9,38.2,30.20,East,90,0.0,0.0,35,0.00,,,0.00,WUHU21623XXSP,2013-08-30 05:39:00,
2013-08-29 22:50:00,66.4,38.4,30.20,East,90,0.0,0.0,37,0.00,,,0.00,WUHU21623XXSP,2013-08-30 05:50:00,
2013-08-29 22:55:00,66.2,39.2,30.21,East,90,0.0,0.0,37,0.00,,,0.00,WUHU21623XXSP,2013-08-30 05:55:00,
2013-08-29 23:00:00,66.0,39.6,30.21,East,90,0.0,0.0,38,0.00,,,0.00,WUHU21623XXSP,2013-08-30 06:00:00,
2013-08-29 23:05:00,65.8,39.4,30.20,ESE,112,0.0,0.0,38,0.00,,,0.00,WUHU21623XXSP,2013-08-30 06:05:00,
2013-08-29 23:10:00,65.7,39.3,30.21,SE,135,0.0,0.0,38,0.00,,,0.00,WUHU21623XXSP,2013-08-30 06:10:00,
2013-08-29 23:15:00,65.5,39.1,30.21,ESE,112,0.0,0.0,38,0.00,,,0.00,WUHU21623XXSP,2013-08-30 06:15:00,
2013-08-29 23:20:00,65.3,38.9,30.21,ESE,112,0.0,0.0,38,0.00,,,0.00,WUHU21623XXSP,2013-08-30 06:20:00,
2013-08-29 23:26:00,64.9,39.3,30.21,SSE,157,0.0,0.0,39,0.00,,,0.00,WUHU21623XXSP,2013-08-30 06:26:00,
2013-08-29 23:31:00,64.8,39.2,30.21,ESE,112,0.0,0.0,39,0.00,,,0.00,WUHU21623XXSP,2013-08-30 06:31:00,
2013-08-29 23:41:00,64.6,39.0,30.21,ENE,67,0.0,0.0,39,0.00,,,0.00,WUHU21623XXSP,2013-08-30 06:41:00,
2013-08-29 23:50:00,64.6,39.0,30.21,SSE,157,0.0,0.0,39,0.00,,,0.00,WUHU21623XXSP,2013-08-30 06:50:00,
2013-08-29 23:56:00,64.2,38.7,30.21,SSE,157,0.0,0.0,39,0.00,,,0.00,WUHU21623XXSP,2013-08-30 06:56:00,